createdAt,value
2023-11-07T00:00:21.575Z,6.10
2023-11-07T00:03:09.421Z,6.10
2023-11-07T00:05:56.424Z,6.00
2023-11-07T00:08:43.306Z,6.10
2023-11-07T00:11:30.207Z,6.00
2023-11-07T00:14:18.495Z,6.00
2023-11-07T00:17:05.272Z,6.00
2023-11-07T00:19:52.145Z,6.00
2023-11-07T00:22:39.012Z,6.00
2023-11-07T00:25:26.703Z,6.00
2023-11-07T00:28:13.703Z,5.90
2023-11-07T00:31:00.458Z,6.00
2023-11-07T00:33:47.390Z,5.90
2023-11-07T00:36:34.383Z,5.90
2023-11-07T00:39:21.618Z,5.90
2023-11-07T00:42:08.814Z,5.90
2023-11-07T00:44:55.555Z,5.90
2023-11-07T00:47:42.521Z,5.90
2023-11-07T00:50:29.447Z,5.90
2023-11-07T00:53:16.218Z,5.90
2023-11-07T00:56:06.272Z,5.90
2023-11-07T00:58:53.055Z,5.90
2023-11-07T01:01:39.853Z,5.90
2023-11-07T01:04:27.038Z,5.90
2023-11-07T01:07:14.362Z,5.90
2023-11-07T01:10:01.167Z,5.90
2023-11-07T01:12:47.935Z,6.00
2023-11-07T01:15:34.783Z,6.00
2023-11-07T01:18:21.683Z,6.00
2023-11-07T01:21:09.361Z,6.00
2023-11-07T01:23:56.118Z,6.00
2023-11-07T01:26:43.207Z,6.00
2023-11-07T01:29:30.007Z,6.00
2023-11-07T01:32:16.912Z,6.00
2023-11-07T01:35:04.651Z,6.00
2023-11-07T01:37:52.328Z,6.00
2023-11-07T01:40:39.309Z,6.00
2023-11-07T01:43:26.297Z,6.00
2023-11-07T01:46:13.089Z,6.00
2023-11-07T01:48:59.950Z,6.00
2023-11-07T01:51:46.710Z,6.10
2023-11-07T01:54:33.517Z,6.10
2023-11-07T01:57:20.732Z,6.00
2023-11-07T02:00:12.815Z,6.10
2023-11-07T02:03:00.414Z,6.10
2023-11-07T02:05:47.262Z,6.10
2023-11-07T02:08:35.104Z,6.10
2023-11-07T02:11:21.931Z,6.10
2023-11-07T02:14:10.412Z,6.10
2023-11-07T02:16:57.498Z,6.10
2023-11-07T02:19:44.340Z,6.10
2023-11-07T02:22:31.146Z,6.10
2023-11-07T02:25:18.211Z,6.10
2023-11-07T02:28:05.436Z,6.10
2023-11-07T02:30:52.393Z,6.10
2023-11-07T02:33:39.246Z,6.20
2023-11-07T02:36:26.252Z,6.10
2023-11-07T02:39:13.947Z,6.10
2023-11-07T02:42:02.407Z,6.20
2023-11-07T02:44:49.368Z,6.10
2023-11-07T02:47:41.713Z,6.10
2023-11-07T02:50:29.916Z,6.20
2023-11-07T02:53:16.758Z,6.20
2023-11-07T02:56:03.835Z,6.10
2023-11-07T02:58:50.628Z,6.10
2023-11-07T03:01:37.534Z,6.10
2023-11-07T03:04:24.447Z,6.20
2023-11-07T03:07:11.355Z,6.10
2023-11-07T03:09:59.257Z,6.10
2023-11-07T03:12:48.210Z,6.10
2023-11-07T03:15:35.125Z,6.10
2023-11-07T03:18:22.003Z,6.10
2023-11-07T03:21:09.295Z,6.10
2023-11-07T03:23:56.087Z,6.10
2023-11-07T03:26:43.034Z,6.10
2023-11-07T03:29:29.834Z,6.10
2023-11-07T03:32:16.707Z,6.10
2023-11-07T03:35:03.521Z,6.10
2023-11-07T03:37:50.619Z,6.10
2023-11-07T03:40:37.420Z,6.10
2023-11-07T03:43:24.208Z,6.00
2023-11-07T03:46:11.012Z,6.00
2023-11-07T03:48:58.093Z,6.00
2023-11-07T03:51:45.600Z,6.00
2023-11-07T03:54:32.712Z,6.00
2023-11-07T03:57:19.420Z,5.90
2023-11-07T04:00:09.669Z,5.90
2023-11-07T04:02:57.324Z,6.00
2023-11-07T04:05:44.314Z,5.90
2023-11-07T04:08:31.121Z,5.90
2023-11-07T04:11:19.069Z,5.90
2023-11-07T04:14:06.805Z,5.90
2023-11-07T04:16:53.814Z,5.90
2023-11-07T04:19:40.562Z,5.90
2023-11-07T04:22:27.501Z,5.90
2023-11-07T04:25:14.310Z,5.80
2023-11-07T04:28:01.197Z,5.80
2023-11-07T04:30:48.132Z,5.90
2023-11-07T04:33:35.143Z,5.80
2023-11-07T04:36:23.877Z,5.80
2023-11-07T04:39:11.140Z,5.80
2023-11-07T04:41:59.166Z,5.80
2023-11-07T04:44:46.719Z,5.80
2023-11-07T04:47:33.773Z,5.70
2023-11-07T04:50:21.047Z,5.70
2023-11-07T04:53:08.655Z,5.70
2023-11-07T04:55:56.067Z,5.70
2023-11-07T04:58:56.786Z,5.60
2023-11-07T05:01:49.236Z,5.70
2023-11-07T05:04:36.910Z,5.60
2023-11-07T05:07:23.758Z,5.60
2023-11-07T05:10:11.752Z,5.60
2023-11-07T05:12:58.480Z,5.60
2023-11-07T05:15:45.351Z,5.60
2023-11-07T05:18:32.649Z,5.60
2023-11-07T05:21:19.648Z,5.60
2023-11-07T05:24:06.828Z,5.60
2023-11-07T05:26:53.741Z,5.60
2023-11-07T05:29:41.185Z,5.60
2023-11-07T05:32:28.725Z,5.60
2023-11-07T05:35:16.619Z,5.50
2023-11-07T05:38:03.905Z,5.50
2023-11-07T05:40:51.913Z,5.60
2023-11-07T05:43:42.012Z,5.50
2023-11-07T05:46:29.046Z,5.50
2023-11-07T05:49:15.854Z,5.60
2023-11-07T05:52:04.742Z,5.50
2023-11-07T05:54:51.647Z,5.50
2023-11-07T05:57:40.485Z,5.50
2023-11-07T06:00:27.421Z,5.50
2023-11-07T06:03:14.804Z,5.60
2023-11-07T06:06:01.894Z,5.60
2023-11-07T06:08:49.586Z,5.60
2023-11-07T06:11:36.351Z,5.60
2023-11-07T06:14:24.076Z,5.60
2023-11-07T06:17:12.177Z,5.60
2023-11-07T06:19:59.436Z,5.60
2023-11-07T06:22:46.276Z,5.60
2023-11-07T06:25:35.018Z,5.50
2023-11-07T06:28:22.416Z,5.60
2023-11-07T06:31:09.880Z,5.60
2023-11-07T06:33:56.893Z,5.60
2023-11-07T06:36:43.925Z,5.60
2023-11-07T06:39:30.726Z,5.50
2023-11-07T06:42:18.608Z,5.60
2023-11-07T06:45:06.793Z,5.60
2023-11-07T06:47:54.042Z,5.60
2023-11-07T06:50:40.906Z,5.60
2023-11-07T06:53:28.050Z,5.60
2023-11-07T06:56:14.966Z,5.60
2023-11-07T06:59:01.963Z,5.60
2023-11-07T07:01:48.776Z,5.60
2023-11-07T07:04:35.579Z,5.60
2023-11-07T07:07:22.408Z,5.60
2023-11-07T07:10:10.683Z,5.60
2023-11-07T07:12:57.596Z,5.60
2023-11-07T07:15:44.460Z,5.70
2023-11-07T07:18:31.547Z,5.60
2023-11-07T07:21:18.475Z,5.60
2023-11-07T07:24:22.224Z,5.60
2023-11-07T07:27:12.932Z,5.60
2023-11-07T07:30:00.899Z,5.60
2023-11-07T07:32:48.839Z,5.60
2023-11-07T07:35:35.733Z,5.60
2023-11-07T07:38:25.996Z,5.70
2023-11-07T07:41:14.244Z,5.60
2023-11-07T07:44:02.847Z,5.70
2023-11-07T07:46:52.276Z,5.60
2023-11-07T07:49:41.388Z,5.70
2023-11-07T07:52:33.248Z,5.70
2023-11-07T07:55:31.567Z,5.70
2023-11-07T07:58:21.559Z,5.70
2023-11-07T08:01:10.858Z,5.70
2023-11-07T08:03:57.901Z,5.70
2023-11-07T08:06:44.724Z,5.70
2023-11-07T08:09:31.540Z,5.70
2023-11-07T08:12:18.356Z,5.80
2023-11-07T08:15:08.882Z,5.80
2023-11-07T08:17:55.911Z,5.80
2023-11-07T08:20:42.901Z,5.80
2023-11-07T08:23:29.696Z,5.80
2023-11-07T08:26:16.465Z,5.90
2023-11-07T08:29:07.278Z,5.80
2023-11-07T08:31:54.179Z,5.90
2023-11-07T08:34:44.099Z,5.90
2023-11-07T08:37:31.906Z,5.90
2023-11-07T08:40:22.241Z,5.90
2023-11-07T08:43:10.380Z,6.00
2023-11-07T08:45:57.356Z,6.00
2023-11-07T08:48:45.859Z,6.00
2023-11-07T08:51:32.952Z,6.00
2023-11-07T08:54:19.769Z,6.00
2023-11-07T08:57:06.974Z,6.10
2023-11-07T08:59:53.884Z,6.10
2023-11-07T09:02:41.313Z,6.10
2023-11-07T09:05:28.733Z,6.10
2023-11-07T09:08:15.536Z,6.20
2023-11-07T09:11:02.717Z,6.20
2023-11-07T09:13:51.154Z,6.20
2023-11-07T09:16:37.989Z,6.30
2023-11-07T09:19:25.016Z,6.30
2023-11-07T09:22:12.042Z,6.40
2023-11-07T09:24:58.949Z,6.40
2023-11-07T09:27:45.755Z,6.50
2023-11-07T09:30:34.413Z,6.50
2023-11-07T09:33:21.536Z,6.50
2023-11-07T09:36:11.085Z,6.60
2023-11-07T09:38:57.942Z,6.60
2023-11-07T09:41:46.524Z,6.70
2023-11-07T09:44:33.521Z,6.70
2023-11-07T09:47:20.324Z,6.80
2023-11-07T09:50:09.026Z,6.80
2023-11-07T09:52:56.387Z,6.90
2023-11-07T09:55:43.624Z,6.90
2023-11-07T09:58:31.108Z,6.90
2023-11-07T10:01:19.352Z,7.00
2023-11-07T10:04:06.888Z,7.00
2023-11-07T10:06:54.318Z,7.00
2023-11-07T10:09:41.565Z,7.10
2023-11-07T10:12:28.423Z,7.10
2023-11-07T10:15:17.384Z,7.20
2023-11-07T10:18:10.442Z,7.20
2023-11-07T10:20:57.642Z,7.20
2023-11-07T10:23:44.516Z,7.30
2023-11-07T10:26:32.226Z,7.30
2023-11-07T10:29:26.864Z,7.40
2023-11-07T10:32:13.799Z,7.40
2023-11-07T10:35:03.964Z,7.50
2023-11-07T10:37:50.741Z,7.50
2023-11-07T10:40:41.689Z,7.50
2023-11-07T10:43:38.821Z,7.50
2023-11-07T10:46:25.693Z,7.60
2023-11-07T10:49:15.085Z,7.60
2023-11-07T10:52:04.021Z,7.70
2023-11-07T10:54:50.991Z,7.70
2023-11-07T10:57:39.373Z,7.70
2023-11-07T11:00:31.893Z,7.70
2023-11-07T11:03:19.106Z,7.80
2023-11-07T11:06:07.276Z,7.80
2023-11-07T11:08:55.796Z,7.90
2023-11-07T11:11:43.603Z,7.90
2023-11-07T11:14:30.516Z,8.00
2023-11-07T11:17:46.520Z,8.00
2023-11-07T11:21:17.726Z,8.00
2023-11-07T11:24:25.724Z,8.10
2023-11-07T11:27:43.990Z,8.10
2023-11-07T11:30:34.331Z,8.10
2023-11-07T11:33:21.331Z,8.10
2023-11-07T11:36:34.454Z,8.20
2023-11-07T11:39:34.626Z,8.20
2023-11-07T11:42:21.716Z,8.20
2023-11-07T11:45:40.065Z,8.30
2023-11-07T11:49:00.599Z,8.30
2023-11-07T11:51:47.491Z,8.30
2023-11-07T11:54:34.842Z,8.40
2023-11-07T11:57:23.296Z,8.40
2023-11-07T12:00:12.344Z,8.40
2023-11-07T12:03:06.186Z,8.40
2023-11-07T12:06:08.411Z,8.50
2023-11-07T12:08:56.763Z,8.50
2023-11-07T12:11:45.860Z,8.50
2023-11-07T12:14:38.464Z,8.50
2023-11-07T12:17:45.305Z,8.50
2023-11-07T12:20:33.650Z,8.60
2023-11-07T12:23:21.479Z,8.60
2023-11-07T12:26:10.050Z,8.60
2023-11-07T12:28:56.984Z,8.60
2023-11-07T12:31:43.839Z,8.70
2023-11-07T12:34:35.074Z,8.70
2023-11-07T12:37:22.290Z,8.70
2023-11-07T12:40:13.493Z,8.70
2023-11-07T12:43:00.385Z,8.70
2023-11-07T12:45:47.831Z,8.80
2023-11-07T12:48:34.725Z,8.70
2023-11-07T12:51:22.546Z,8.80
2023-11-07T12:54:09.383Z,8.80
2023-11-07T12:56:56.381Z,8.80
2023-11-07T12:59:59.820Z,8.80
2023-11-07T13:02:46.692Z,8.80
2023-11-07T13:05:33.487Z,8.80
2023-11-07T13:08:31.041Z,8.90
2023-11-07T13:11:19.336Z,8.90
2023-11-07T13:14:06.229Z,8.90
2023-11-07T13:16:53.065Z,8.90
2023-11-07T13:19:40.110Z,8.90
2023-11-07T13:22:26.968Z,8.90
2023-11-07T13:25:13.885Z,9.00
2023-11-07T13:28:00.638Z,8.90
2023-11-07T13:30:49.314Z,9.00
2023-11-07T13:33:36.510Z,9.00
2023-11-07T13:36:23.551Z,9.00
2023-11-07T13:39:23.710Z,9.00
2023-11-07T13:42:10.683Z,9.00
2023-11-07T13:44:57.471Z,9.10
2023-11-07T13:47:45.422Z,9.10
2023-11-07T13:50:32.673Z,9.10
2023-11-07T13:53:20.392Z,9.10
2023-11-07T13:56:09.838Z,9.10
2023-11-07T13:58:58.027Z,9.20
2023-11-07T14:01:44.882Z,9.10
2023-11-07T14:04:31.931Z,9.10
2023-11-07T14:07:18.875Z,9.20
2023-11-07T14:10:11.467Z,9.20
2023-11-07T14:12:58.659Z,9.20
2023-11-07T14:15:46.994Z,9.20
2023-11-07T14:18:33.851Z,9.20
2023-11-07T14:21:21.663Z,9.20
2023-11-07T14:24:09.020Z,9.20
2023-11-07T14:26:55.991Z,9.20
2023-11-07T14:30:01.396Z,9.20
2023-11-07T14:32:49.866Z,9.20
2023-11-07T14:35:36.692Z,9.20
2023-11-07T14:38:24.471Z,9.20
2023-11-07T14:41:11.265Z,9.20
2023-11-07T14:43:58.137Z,9.20
2023-11-07T14:46:46.809Z,9.20
2023-11-07T14:49:34.085Z,9.20
2023-11-07T14:52:21.069Z,9.20
2023-11-07T14:55:11.567Z,9.20
2023-11-07T14:57:58.390Z,9.20
2023-11-07T15:00:45.253Z,9.20
2023-11-07T15:03:32.517Z,9.10
2023-11-07T15:06:19.516Z,9.10
2023-11-07T15:09:08.283Z,9.10
2023-11-07T15:11:55.113Z,9.10
2023-11-07T15:14:42.017Z,9.20
2023-11-07T15:17:30.561Z,9.10
2023-11-07T15:20:17.829Z,9.10
2023-11-07T15:23:04.717Z,9.10
2023-11-07T15:25:51.652Z,9.10
2023-11-07T15:28:38.476Z,9.10
2023-11-07T15:31:29.617Z,9.10
2023-11-07T15:34:17.316Z,9.10
2023-11-07T15:37:06.244Z,9.10
2023-11-07T15:39:53.039Z,9.10
2023-11-07T15:42:46.277Z,9.00
2023-11-07T15:45:33.867Z,9.00
2023-11-07T15:48:21.129Z,9.00
2023-11-07T15:51:07.986Z,9.00
2023-11-07T15:53:54.890Z,9.00
2023-11-07T15:56:47.331Z,9.00
2023-11-07T15:59:34.272Z,9.00
2023-11-07T16:02:21.049Z,9.00
2023-11-07T16:05:11.568Z,9.00
2023-11-07T16:07:59.196Z,9.00
2023-11-07T16:10:46.432Z,9.00
2023-11-07T16:13:33.534Z,9.00
2023-11-07T16:16:21.310Z,8.90
2023-11-07T16:19:08.261Z,9.00
2023-11-07T16:21:55.884Z,8.90
2023-11-07T16:24:42.703Z,8.90
2023-11-07T16:27:29.517Z,8.90
2023-11-07T16:30:18.679Z,8.90
2023-11-07T16:33:07.871Z,8.90
2023-11-07T16:35:55.110Z,8.90
2023-11-07T16:38:41.896Z,8.90
2023-11-07T16:41:28.723Z,8.90
2023-11-07T16:44:15.815Z,8.80
2023-11-07T16:47:03.068Z,8.80
2023-11-07T16:49:52.879Z,8.80
2023-11-07T16:52:41.080Z,8.80
2023-11-07T16:55:28.255Z,8.80
2023-11-07T16:58:15.323Z,8.80
2023-11-07T17:01:02.299Z,8.80
2023-11-07T17:03:49.545Z,8.80
2023-11-07T17:06:36.561Z,8.80
2023-11-07T17:09:24.157Z,8.80
2023-11-07T17:12:11.068Z,8.70
2023-11-07T17:14:57.895Z,8.70
2023-11-07T17:17:46.661Z,8.70
2023-11-07T17:20:33.764Z,8.70
2023-11-07T17:23:22.429Z,8.70
2023-11-07T17:26:09.159Z,8.70
2023-11-07T17:28:57.362Z,8.70
2023-11-07T17:31:44.139Z,8.70
2023-11-07T17:34:31.049Z,8.70
2023-11-07T17:37:17.823Z,8.70
2023-11-07T17:40:09.692Z,8.60
2023-11-07T17:42:56.532Z,8.60
2023-11-07T17:45:43.517Z,8.60
2023-11-07T17:48:30.553Z,8.60
2023-11-07T17:51:23.457Z,8.60
2023-11-07T17:54:10.690Z,8.60
2023-11-07T17:56:57.608Z,8.60
2023-11-07T17:59:46.061Z,8.60
2023-11-07T18:02:32.863Z,8.60
2023-11-07T18:05:19.794Z,8.60
2023-11-07T18:08:07.310Z,8.50
2023-11-07T18:11:02.187Z,8.50
2023-11-07T18:13:49.294Z,8.50
2023-11-07T18:16:36.155Z,8.50
2023-11-07T18:19:24.498Z,8.50
2023-11-07T18:22:11.581Z,8.50
2023-11-07T18:25:00.317Z,8.50
2023-11-07T18:27:47.251Z,8.50
2023-11-07T18:30:34.155Z,8.50
2023-11-07T18:33:23.951Z,8.50
2023-11-07T18:36:11.233Z,8.40
2023-11-07T18:38:58.638Z,8.40
2023-11-07T18:41:47.692Z,8.40
2023-11-07T18:44:37.559Z,8.40
2023-11-07T18:47:24.527Z,8.40
2023-11-07T18:50:12.727Z,8.40
2023-11-07T18:52:59.677Z,8.30
2023-11-07T18:55:47.696Z,8.30
2023-11-07T18:58:34.734Z,8.30
2023-11-07T19:01:23.805Z,8.30
2023-11-07T19:04:11.028Z,8.30
2023-11-07T19:06:58.027Z,8.20
2023-11-07T19:09:46.443Z,8.20
2023-11-07T19:12:33.233Z,8.20
2023-11-07T19:15:20.810Z,8.20
2023-11-07T19:18:07.879Z,8.20
2023-11-07T19:20:55.823Z,8.20
2023-11-07T19:23:42.571Z,8.10
2023-11-07T19:26:29.397Z,8.20
2023-11-07T19:29:17.684Z,8.10
2023-11-07T19:32:04.894Z,8.10
2023-11-07T19:34:52.048Z,8.10
2023-11-07T19:37:40.071Z,8.10
2023-11-07T19:40:27.848Z,8.10
2023-11-07T19:43:16.536Z,8.10
2023-11-07T19:46:05.560Z,8.00
2023-11-07T19:48:53.016Z,8.00
2023-11-07T19:51:41.211Z,8.00
2023-11-07T19:54:28.373Z,8.00
2023-11-07T19:57:16.099Z,8.00
2023-11-07T20:00:03.311Z,8.00
2023-11-07T20:02:50.574Z,8.00
2023-11-07T20:05:37.517Z,8.00
2023-11-07T20:08:29.786Z,8.00
2023-11-07T20:11:17.490Z,7.90
2023-11-07T20:14:04.341Z,8.00
2023-11-07T20:16:51.363Z,7.90
2023-11-07T20:19:38.905Z,7.90
2023-11-07T20:22:25.817Z,7.90
2023-11-07T20:25:12.842Z,7.90
2023-11-07T20:28:00.029Z,7.90
2023-11-07T20:30:46.836Z,7.90
2023-11-07T20:33:41.729Z,7.90
2023-11-07T20:36:34.029Z,7.90
2023-11-07T20:39:20.912Z,7.80
2023-11-07T20:42:07.984Z,7.80
2023-11-07T20:45:01.174Z,7.80
2023-11-07T20:47:54.941Z,7.80
2023-11-07T20:50:42.943Z,7.80
2023-11-07T20:53:32.770Z,7.80
2023-11-07T20:56:23.437Z,7.80
2023-11-07T20:59:13.335Z,7.80
2023-11-07T21:02:00.197Z,7.80
2023-11-07T21:04:48.883Z,7.80
2023-11-07T21:07:36.608Z,7.80
2023-11-07T21:10:23.463Z,7.80
2023-11-07T21:13:10.255Z,7.80
2023-11-07T21:15:57.039Z,7.80
2023-11-07T21:18:45.566Z,7.80
2023-11-07T21:21:32.507Z,7.70
2023-11-07T21:24:19.702Z,7.70
2023-11-07T21:27:06.600Z,7.80
2023-11-07T21:29:53.431Z,7.70
2023-11-07T21:32:43.167Z,7.70
2023-11-07T21:35:29.991Z,7.70
2023-11-07T21:38:16.801Z,7.80
2023-11-07T21:41:03.996Z,7.70
2023-11-07T21:43:50.747Z,7.80
2023-11-07T21:46:38.174Z,8.20
2023-11-07T21:49:25.034Z,7.70
2023-11-07T21:52:12.246Z,7.80
2023-11-07T21:54:59.041Z,7.80
2023-11-07T21:57:45.860Z,7.80
2023-11-07T22:00:33.564Z,7.80
2023-11-07T22:03:20.972Z,7.80
2023-11-07T22:06:08.069Z,7.80
2023-11-07T22:08:54.879Z,7.80
2023-11-07T22:11:41.660Z,7.80
2023-11-07T22:14:28.608Z,7.80
2023-11-07T22:17:15.458Z,7.80
2023-11-07T22:20:03.839Z,7.80
2023-11-07T22:22:50.596Z,7.80
2023-11-07T22:25:37.617Z,7.80
2023-11-07T22:28:24.429Z,7.80
2023-11-07T22:31:11.873Z,7.80
2023-11-07T22:33:59.630Z,7.80
2023-11-07T22:36:46.538Z,7.80
2023-11-07T22:39:33.561Z,7.80
2023-11-07T22:42:20.586Z,7.90
2023-11-07T22:45:08.689Z,7.80
2023-11-07T22:47:55.520Z,7.90
2023-11-07T22:50:42.365Z,7.90
2023-11-07T22:53:29.373Z,7.90
2023-11-07T22:56:16.168Z,7.80
2023-11-07T22:59:03.064Z,7.90
2023-11-07T23:01:50.375Z,7.90
2023-11-07T23:04:37.287Z,7.90
2023-11-07T23:07:24.217Z,7.90
2023-11-07T23:10:11.789Z,7.90
2023-11-07T23:12:58.978Z,7.90
2023-11-07T23:15:48.745Z,7.90
2023-11-07T23:18:35.614Z,7.90
2023-11-07T23:21:22.677Z,7.90
2023-11-07T23:24:10.185Z,7.90
2023-11-07T23:26:57.107Z,7.90
2023-11-07T23:29:45.282Z,7.90
2023-11-07T23:32:32.446Z,7.90
2023-11-07T23:35:19.596Z,7.90
2023-11-07T23:38:06.533Z,7.90
2023-11-07T23:40:53.371Z,7.90
2023-11-07T23:43:40.270Z,7.90
2023-11-07T23:46:27.920Z,7.90
2023-11-07T23:49:15.444Z,7.90
2023-11-07T23:52:04.755Z,7.80
2023-11-07T23:54:51.509Z,7.80
2023-11-07T23:57:39.189Z,7.80
